Time;durP1;ratioP1;P1;durP2;ratioP2;P2;SDS_P1;SDS_P2;PMS_P1;PMS_P2;Temp;Humidity;BMP_temperature;BMP_pressure;BME280_temperature;BME280_humidity;BME280_pressure;Samples;Min_cycle;Max_cycle;Signal;HPM_P1;HPM_P2
2023/05/12 00:02:25;;;;;;;5.63;3.00;;;12.60;99.90;;;;;;4992609;28;20026;-73
2023/05/12 00:04:52;;;;;;;7.57;3.75;;;12.60;99.90;;;;;;4993411;28;20029;-72
2023/05/12 00:07:17;;;;;;;9.02;3.67;;;12.60;99.90;;;;;;4982024;28;20113;-71
2023/05/12 00:09:43;;;;;;;7.20;4.30;;;12.50;99.90;;;;;;4986907;28;20117;-72
2023/05/12 00:12:09;;;;;;;8.03;3.53;;;12.50;99.90;;;;;;4980838;28;20023;-72
2023/05/12 00:14:36;;;;;;;6.03;4.10;;;12.40;99.90;;;;;;4987906;28;20046;-72
2023/05/12 00:17:05;;;;;;;7.90;2.95;;;12.40;99.90;;;;;;4985924;28;20035;-83
2023/05/12 00:19:33;;;;;;;6.40;4.10;;;12.40;99.90;;;;;;4987664;28;20110;-72
2023/05/12 00:21:59;;;;;;;9.43;4.15;;;12.40;99.90;;;;;;4987419;28;20037;-72
2023/05/12 00:24:25;;;;;;;8.07;4.60;;;12.30;99.90;;;;;;4987652;28;20310;-72
2023/05/12 00:26:52;;;;;;;8.98;4.93;;;12.30;99.90;;;;;;4994302;28;20080;-71
2023/05/12 00:29:18;;;;;;;9.63;5.40;;;12.30;99.90;;;;;;4991321;28;20041;-72
2023/05/12 00:31:44;;;;;;;12.93;6.60;;;12.30;99.90;;;;;;5001971;28;20318;-73
2023/05/12 00:34:09;;;;;;;12.87;6.37;;;12.30;99.90;;;;;;4981996;28;20151;-72
2023/05/12 00:36:36;;;;;;;12.77;6.83;;;12.30;99.90;;;;;;4989852;28;20052;-71
2023/05/12 00:39:02;;;;;;;12.75;7.90;;;12.30;99.90;;;;;;4991831;28;20038;-72
2023/05/12 00:41:28;;;;;;;13.15;7.90;;;12.40;99.90;;;;;;4985170;28;20049;-73
2023/05/12 00:43:54;;;;;;;13.97;6.93;;;12.30;99.90;;;;;;4990363;28;20418;-72
2023/05/12 00:46:20;;;;;;;14.40;8.20;;;12.30;99.90;;;;;;4992532;28;20093;-72
2023/05/12 00:48:47;;;;;;;13.70;7.32;;;12.30;99.90;;;;;;5002121;28;20526;-72
2023/05/12 00:51:15;;;;;;;12.45;6.72;;;12.30;99.90;;;;;;4993089;28;20034;-81
2023/05/12 00:53:41;;;;;;;9.65;5.40;;;12.30;99.90;;;;;;4990710;28;20109;-73
2023/05/12 00:56:07;;;;;;;12.43;6.53;;;12.30;99.90;;;;;;5004528;28;20417;-73
2023/05/12 00:58:33;;;;;;;12.48;6.47;;;12.30;99.90;;;;;;4998362;28;20088;-73
2023/05/12 01:00:59;;;;;;;11.03;6.60;;;12.30;99.90;;;;;;4998497;28;20034;-72
2023/05/12 01:03:25;;;;;;;9.43;5.20;;;12.30;99.90;;;;;;4993393;28;20033;-81
2023/05/12 01:06:16;;;;;;;11.67;6.63;;;12.30;99.90;;;;;;4991720;28;20026;-73
2023/05/12 01:08:42;;;;;;;9.60;5.28;;;12.30;99.90;;;;;;4980459;28;20421;-74
2023/05/12 01:11:08;;;;;;;8.55;5.05;;;12.30;99.90;;;;;;4993571;28;20034;-73
2023/05/12 01:13:35;;;;;;;6.03;3.30;;;12.20;99.90;;;;;;4992876;28;20022;-73
2023/05/12 01:16:02;;;;;;;5.85;2.95;;;12.20;99.90;;;;;;4995258;28;20031;-73
2023/05/12 01:18:31;;;;;;;6.43;4.05;;;12.10;99.90;;;;;;4991929;28;20098;-72
2023/05/12 01:20:57;;;;;;;5.55;3.35;;;12.10;99.90;;;;;;5009516;28;20049;-73
2023/05/12 01:23:30;;;;;;;10.00;3.53;;;12.10;99.90;;;;;;5005517;28;20414;-72
2023/05/12 01:26:04;;;;;;;8.00;2.88;;;12.00;99.90;;;;;;5002973;28;20026;-73
2023/05/12 01:28:30;;;;;;;4.53;2.90;;;12.00;99.90;;;;;;5009910;28;20018;-73
2023/05/12 01:30:57;;;;;;;6.60;2.97;;;12.00;99.90;;;;;;4995402;28;20033;-72
2023/05/12 01:33:23;;;;;;;8.43;3.42;;;12.00;99.90;;;;;;4987384;28;20314;-72
2023/05/12 01:35:49;;;;;;;6.20;3.00;;;12.10;99.90;;;;;;4995173;28;20375;-72
2023/05/12 01:38:14;;;;;;;6.70;3.63;;;12.10;99.90;;;;;;4994136;28;20057;-73
2023/05/12 01:40:40;;;;;;;8.97;4.17;;;12.00;99.90;;;;;;4994331;28;20077;-82
2023/05/12 01:43:06;;;;;;;6.93;3.60;;;12.00;99.90;;;;;;4982812;28;20033;-73
2023/05/12 01:45:32;;;;;;;3.33;2.07;;;12.00;99.90;;;;;;4989670;28;20077;-73
2023/05/12 01:47:58;;;;;;;4.83;3.13;;;12.00;99.90;;;;;;4986230;28;20030;-72
2023/05/12 01:50:24;;;;;;;4.60;2.20;;;12.10;99.90;;;;;;4994183;28;20621;-71
2023/05/12 01:52:50;;;;;;;7.97;2.90;;;12.10;99.90;;;;;;5007365;28;20376;-72
2023/05/12 01:55:16;;;;;;;3.93;2.50;;;12.10;99.90;;;;;;4994860;28;20725;-72
2023/05/12 01:57:42;;;;;;;4.60;2.70;;;12.00;99.90;;;;;;4993600;28;20350;-72
2023/05/12 02:00:08;;;;;;;4.83;1.80;;;12.00;99.90;;;;;;4988755;28;20062;-72
2023/05/12 02:02:34;;;;;;;4.15;2.28;;;12.00;99.90;;;;;;4992109;28;20394;-74
2023/05/12 02:05:00;;;;;;;4.23;2.90;;;12.00;99.90;;;;;;4997439;28;20069;-73
2023/05/12 02:07:25;;;;;;;5.10;3.13;;;12.00;99.90;;;;;;4990582;28;20030;-80
2023/05/12 02:09:51;;;;;;;5.80;2.77;;;12.00;99.90;;;;;;4996957;28;20084;-72
2023/05/12 02:12:17;;;;;;;5.13;2.70;;;12.10;99.90;;;;;;4996039;28;20034;-71
2023/05/12 02:14:42;;;;;;;6.63;3.30;;;12.00;99.90;;;;;;4995702;28;20042;-73
2023/05/12 02:17:08;;;;;;;6.63;3.23;;;12.10;99.90;;;;;;4997434;28;20753;-72
2023/05/12 02:19:34;;;;;;;5.37;2.80;;;12.10;99.90;;;;;;4995956;28;20022;-72
2023/05/12 02:21:59;;;;;;;3.77;1.87;;;12.10;99.90;;;;;;4996347;28;20485;-73
2023/05/12 02:24:25;;;;;;;2.33;1.67;;;12.10;99.90;;;;;;4994293;28;20022;-84
2023/05/12 02:26:51;;;;;;;2.13;1.50;;;12.10;99.90;;;;;;4992329;28;20106;-74
2023/05/12 02:29:17;;;;;;;1.57;0.77;;;12.10;99.90;;;;;;4997101;28;20037;-73
2023/05/12 02:31:43;;;;;;;1.45;0.93;;;12.10;99.90;;;;;;4993714;28;20027;-73
2023/05/12 02:34:08;;;;;;;2.37;1.47;;;12.10;99.90;;;;;;4991905;28;20068;-73
2023/05/12 02:36:34;;;;;;;3.10;1.17;;;12.20;99.90;;;;;;4996582;28;20425;-84
2023/05/12 02:39:00;;;;;;;2.30;1.67;;;12.20;99.90;;;;;;4996676;28;20030;-73
2023/05/12 02:41:26;;;;;;;3.10;1.93;;;12.20;99.90;;;;;;5010974;28;20030;-74
2023/05/12 02:43:52;;;;;;;3.20;2.13;;;12.30;99.90;;;;;;4994454;28;20093;-72
2023/05/12 02:46:18;;;;;;;4.43;2.10;;;12.30;99.90;;;;;;4996006;28;20424;-73
2023/05/12 02:48:43;;;;;;;3.13;1.70;;;12.20;99.90;;;;;;4990108;28;20117;-75
2023/05/12 02:51:09;;;;;;;4.63;2.23;;;12.30;99.90;;;;;;5005514;28;20437;-73
2023/05/12 02:53:35;;;;;;;4.77;2.50;;;12.30;99.90;;;;;;4997579;28;20018;-73
2023/05/12 02:56:00;;;;;;;5.10;2.93;;;12.30;99.90;;;;;;5005102;28;20080;-75
2023/05/12 02:58:26;;;;;;;5.97;3.60;;;12.30;99.90;;;;;;5013582;28;20355;-75
2023/05/12 03:00:52;;;;;;;8.27;4.33;;;12.40;99.90;;;;;;5001210;28;20095;-76
2023/05/12 03:03:17;;;;;;;8.63;3.77;;;12.40;99.90;;;;;;5007264;28;20104;-75
2023/05/12 03:05:43;;;;;;;10.73;4.50;;;12.30;99.90;;;;;;4995594;28;20042;-75
2023/05/12 03:08:09;;;;;;;10.33;5.37;;;12.30;99.90;;;;;;5001334;28;20310;-75
2023/05/12 03:10:35;;;;;;;10.27;5.73;;;12.30;99.90;;;;;;4991169;28;20357;-74
2023/05/12 03:13:01;;;;;;;8.43;5.23;;;12.30;99.90;;;;;;5001237;28;20097;-76
2023/05/12 03:15:26;;;;;;;9.17;4.70;;;12.30;99.90;;;;;;5000105;28;20318;-74
2023/05/12 03:17:52;;;;;;;14.50;6.07;;;12.30;99.90;;;;;;5000324;28;20040;-74
2023/05/12 03:20:18;;;;;;;12.17;5.70;;;12.30;99.90;;;;;;5010486;28;20302;-74
2023/05/12 03:22:44;;;;;;;12.15;5.45;;;12.30;99.90;;;;;;5008154;28;20032;-74
2023/05/12 03:25:11;;;;;;;13.00;6.43;;;12.30;99.90;;;;;;5011348;28;20096;-75
2023/05/12 03:27:36;;;;;;;12.95;6.05;;;12.30;99.90;;;;;;5006241;28;20728;-74
2023/05/12 03:30:04;;;;;;;11.43;5.67;;;12.30;99.90;;;;;;5006671;28;20147;-75
2023/05/12 03:32:29;;;;;;;11.70;6.32;;;12.30;99.90;;;;;;5005213;28;20054;-73
2023/05/12 03:34:55;;;;;;;15.10;6.80;;;12.30;99.90;;;;;;5010080;28;20064;-75
2023/05/12 03:37:21;;;;;;;14.05;7.32;;;12.30;99.90;;;;;;5000792;28;20030;-73
2023/05/12 03:39:47;;;;;;;14.70;6.47;;;12.40;99.90;;;;;;4999906;28;20057;-72
2023/05/12 03:42:13;;;;;;;17.23;6.90;;;12.30;99.90;;;;;;4991063;28;20015;-73
2023/05/12 03:44:39;;;;;;;16.05;8.50;;;12.30;99.90;;;;;;4987930;28;20031;-74
2023/05/12 03:47:05;;;;;;;14.77;7.05;;;12.40;99.90;;;;;;4994147;28;20463;-73
2023/05/12 03:49:31;;;;;;;22.57;10.17;;;12.30;99.90;;;;;;4989835;28;20101;-74
2023/05/12 03:51:57;;;;;;;23.70;9.33;;;12.30;99.90;;;;;;4994711;28;20027;-71
2023/05/12 03:54:22;;;;;;;25.67;9.70;;;12.30;99.90;;;;;;4995567;28;20030;-73
2023/05/12 03:56:48;;;;;;;25.23;10.50;;;12.30;99.90;;;;;;4988787;28;20421;-76
2023/05/12 03:59:15;;;;;;;30.43;12.73;;;12.20;99.90;;;;;;4993311;28;20109;-73
2023/05/12 04:01:40;;;;;;;18.77;8.52;;;12.20;99.90;;;;;;4993533;28;20385;-80
2023/05/12 04:04:06;;;;;;;29.83;12.33;;;12.30;99.90;;;;;;4980826;28;20038;-75
2023/05/12 04:06:32;;;;;;;32.77;13.80;;;12.20;99.90;;;;;;4986413;28;20023;-73
2023/05/12 04:08:58;;;;;;;32.23;13.53;;;12.20;99.90;;;;;;4994642;28;20374;-75
2023/05/12 04:11:23;;;;;;;30.57;13.00;;;12.20;99.90;;;;;;4993169;28;20032;-73
2023/05/12 04:13:49;;;;;;;29.87;12.33;;;12.20;99.90;;;;;;4988485;28;20031;-72
2023/05/12 04:16:15;;;;;;;39.20;14.23;;;12.10;99.90;;;;;;4999841;28;20030;-73
2023/05/12 04:18:41;;;;;;;35.87;14.53;;;12.10;99.90;;;;;;4993711;28;20022;-73
2023/05/12 04:21:06;;;;;;;39.60;15.70;;;12.10;99.90;;;;;;4998171;28;20033;-72
2023/05/12 04:23:32;;;;;;;37.60;14.73;;;12.10;99.90;;;;;;4998445;28;20023;-72
2023/05/12 04:25:58;;;;;;;36.57;16.20;;;12.10;99.90;;;;;;4995987;28;20117;-73
2023/05/12 04:28:23;;;;;;;33.80;15.87;;;12.10;99.90;;;;;;5003556;28;20022;-74
2023/05/12 04:30:49;;;;;;;38.13;15.37;;;12.10;99.90;;;;;;4998995;28;20117;-73
2023/05/12 04:33:15;;;;;;;35.13;15.10;;;12.20;99.90;;;;;;4994175;28;20484;-74
2023/05/12 04:35:41;;;;;;;39.93;15.57;;;12.20;99.90;;;;;;4996292;28;20452;-74
2023/05/12 04:38:07;;;;;;;35.93;15.13;;;12.20;99.90;;;;;;4992066;28;20038;-73
2023/05/12 04:40:33;;;;;;;34.33;15.57;;;12.20;99.90;;;;;;4990800;28;20034;-73
2023/05/12 04:42:58;;;;;;;41.07;16.27;;;12.20;99.90;;;;;;4993961;28;20030;-73
2023/05/12 04:45:24;;;;;;;37.33;16.27;;;12.30;99.90;;;;;;4991383;28;20198;-73
2023/05/12 04:47:50;;;;;;;37.17;16.10;;;12.30;99.90;;;;;;5008358;28;20033;-72
2023/05/12 04:50:16;;;;;;;42.80;18.73;;;12.30;99.90;;;;;;4988526;28;20031;-72
2023/05/12 04:52:42;;;;;;;39.67;17.70;;;12.30;99.90;;;;;;4983571;28;20029;-72
2023/05/12 04:55:08;;;;;;;42.00;17.40;;;12.30;99.90;;;;;;4991079;28;20034;-72
2023/05/12 04:57:34;;;;;;;34.17;14.25;;;12.30;99.90;;;;;;4994364;28;20440;-73
2023/05/12 05:00:03;;;;;;;44.13;18.83;;;12.40;99.90;;;;;;4995029;28;20042;-73
2023/05/12 05:02:29;;;;;;;37.88;18.30;;;12.40;99.90;;;;;;4993106;28;20110;-73
2023/05/12 05:04:55;;;;;;;40.22;17.88;;;12.40;99.90;;;;;;4993139;28;20022;-72
2023/05/12 05:07:21;;;;;;;39.33;16.67;;;12.50;99.90;;;;;;4994890;28;20034;-73
2023/05/12 05:09:47;;;;;;;40.67;19.10;;;12.50;99.90;;;;;;4992721;28;20026;-72
2023/05/12 05:12:12;;;;;;;40.30;16.70;;;12.50;99.90;;;;;;4986645;28;20022;-81
2023/05/12 05:14:38;;;;;;;39.37;16.57;;;12.50;99.90;;;;;;4994640;28;20049;-76
2023/05/12 05:17:06;;;;;;;37.33;17.15;;;12.50;99.90;;;;;;4991898;28;20426;-73
2023/05/12 05:19:32;;;;;;;34.05;14.35;;;12.50;99.90;;;;;;4985054;28;20125;-74
2023/05/12 05:21:58;;;;;;;42.20;17.97;;;12.50;99.90;;;;;;4988918;28;20321;-73
2023/05/12 05:24:24;;;;;;;36.40;15.60;;;12.50;99.90;;;;;;4981599;28;20110;-74
2023/05/12 05:26:50;;;;;;;40.33;16.60;;;12.50;99.90;;;;;;4978804;28;20023;-72
2023/05/12 05:29:17;;;;;;;39.07;16.63;;;12.50;99.90;;;;;;4980475;28;20033;-76
2023/05/12 05:31:43;;;;;;;;;;;12.50;99.90;;;;;;4994429;28;20026;-75
2023/05/12 05:34:08;;;;;;;44.95;16.50;;;12.50;99.90;;;;;;5003274;28;19916;-75
2023/05/12 05:36:34;;;;;;;40.10;18.70;;;12.50;99.90;;;;;;4993053;28;20027;-74
2023/05/12 05:39:00;;;;;;;40.03;18.73;;;12.50;99.90;;;;;;4998103;28;20040;-73
2023/05/12 05:41:25;;;;;;;22.13;9.07;;;12.50;99.90;;;;;;5002358;28;20481;-71
2023/05/12 05:43:51;;;;;;;43.53;17.73;;;12.50;99.90;;;;;;4996764;28;20053;-72
2023/05/12 05:46:17;;;;;;;46.20;16.30;;;12.50;99.90;;;;;;4997291;28;20318;-74
2023/05/12 05:48:43;;;;;;;40.73;19.20;;;12.50;99.90;;;;;;4994860;28;20040;-73
2023/05/12 05:51:10;;;;;;;44.93;20.30;;;12.50;99.90;;;;;;5003905;28;20019;-72
2023/05/12 05:53:36;;;;;;;45.47;20.08;;;12.50;99.90;;;;;;4992862;28;20053;-72
2023/05/12 05:56:02;;;;;;;46.63;19.53;;;12.50;99.90;;;;;;4984385;28;20076;-73
2023/05/12 05:58:27;;;;;;;45.97;20.27;;;12.50;99.90;;;;;;5010654;28;20460;-72
2023/05/12 06:00:53;;;;;;;44.53;19.63;;;12.50;99.90;;;;;;4993608;28;20035;-73
2023/05/12 06:03:19;;;;;;;56.87;19.33;;;12.60;99.90;;;;;;4997044;28;20053;-73
2023/05/12 06:05:44;;;;;;;46.20;18.63;;;12.60;99.90;;;;;;4993798;28;20029;-79
2023/05/12 06:08:12;;;;;;;46.13;18.67;;;12.60;99.90;;;;;;4995995;28;20018;-74
2023/05/12 06:10:38;;;;;;;43.53;18.85;;;12.60;99.90;;;;;;4993610;28;20388;-72
2023/05/12 06:13:04;;;;;;;46.40;19.10;;;12.60;99.90;;;;;;4992991;28;20118;-77
2023/05/12 06:15:30;;;;;;;48.10;17.13;;;12.60;99.90;;;;;;4955975;28;1217047;-72
2023/05/12 06:17:55;;;;;;;52.63;20.77;;;12.70;99.90;;;;;;4983782;28;20031;-72
2023/05/12 06:20:22;;;;;;;43.40;19.00;;;12.70;99.90;;;;;;4989986;28;20030;-76
2023/05/12 06:22:48;;;;;;;48.88;20.00;;;12.70;99.90;;;;;;4992071;28;20034;-78
2023/05/12 06:25:13;;;;;;;41.90;18.10;;;12.70;99.90;;;;;;4995182;28;20345;-73
2023/05/12 06:27:39;;;;;;;48.23;20.70;;;12.80;99.90;;;;;;4997317;28;20262;-73
2023/05/12 06:30:06;;;;;;;47.00;18.40;;;12.90;99.90;;;;;;4997564;28;20046;-73
2023/05/12 06:32:31;;;;;;;45.65;18.73;;;12.90;99.90;;;;;;5004247;28;20050;-75
2023/05/12 06:34:57;;;;;;;42.67;17.47;;;12.90;99.90;;;;;;5003012;28;20125;-72
2023/05/12 06:37:23;;;;;;;42.30;18.13;;;13.00;99.90;;;;;;5007858;28;20023;-71
2023/05/12 06:39:49;;;;;;;43.90;18.90;;;13.00;99.90;;;;;;5001818;28;20062;-73
2023/05/12 06:42:14;;;;;;;42.87;19.60;;;13.10;99.90;;;;;;4994114;28;20440;-73
2023/05/12 06:44:40;;;;;;;42.17;18.20;;;13.10;99.90;;;;;;4995136;28;20433;-73
2023/05/12 06:47:06;;;;;;;47.50;19.87;;;13.10;99.90;;;;;;4991597;28;20019;-72
2023/05/12 06:49:34;;;;;;;42.97;17.63;;;13.20;99.90;;;;;;4996958;28;20050;-74
2023/05/12 06:52:00;;;;;;;45.17;17.95;;;13.20;99.90;;;;;;4996792;28;20030;-72
2023/05/12 06:54:26;;;;;;;41.37;18.57;;;13.30;99.90;;;;;;5011973;28;20303;-72
2023/05/12 06:56:52;;;;;;;40.93;18.43;;;13.40;99.90;;;;;;4981061;28;20322;-78
2023/05/12 06:59:17;;;;;;;36.97;16.90;;;13.40;99.90;;;;;;4996522;28;20158;-72
2023/05/12 07:01:43;;;;;;;38.27;16.60;;;13.50;99.90;;;;;;4996266;28;20027;-82
2023/05/12 07:04:09;;;;;;;38.07;18.43;;;13.60;99.90;;;;;;4990551;28;20033;-73
2023/05/12 07:06:34;;;;;;;38.13;16.37;;;13.60;99.90;;;;;;4993146;28;20027;-72
2023/05/12 07:09:00;;;;;;;40.17;17.63;;;13.60;99.90;;;;;;4991603;28;20425;-71
2023/05/12 07:11:26;;;;;;;37.00;15.03;;;13.60;99.90;;;;;;4995601;28;20402;-71
2023/05/12 07:13:51;;;;;;;41.93;17.20;;;13.70;99.90;;;;;;4991794;28;20056;-72
2023/05/12 07:16:18;;;;;;;40.33;17.63;;;13.80;99.90;;;;;;4992596;28;20022;-71
2023/05/12 07:18:44;;;;;;;37.85;16.77;;;13.80;99.90;;;;;;5004777;28;20018;-72
2023/05/12 07:21:11;;;;;;;38.53;18.40;;;13.90;99.90;;;;;;4984626;28;20031;-72
2023/05/12 07:23:37;;;;;;;45.83;18.85;;;13.90;99.90;;;;;;4984442;28;20030;-76
2023/05/12 07:26:04;;;;;;;;;;;13.90;99.90;;;;;;4993164;28;20377;-72
2023/05/12 07:28:35;;;;;;;38.28;17.35;;;14.00;99.90;;;;;;4994296;28;19934;-73
2023/05/12 07:31:06;;;;;;;38.42;17.55;;;14.00;99.90;;;;;;4994936;28;20031;-84
2023/05/12 07:33:32;;;;;;;40.17;18.10;;;14.00;99.90;;;;;;4987614;28;20041;-71
2023/05/12 07:35:58;;;;;;;39.70;17.88;;;14.00;99.90;;;;;;4988370;28;20030;-72
2023/05/12 07:38:24;;;;;;;34.53;16.57;;;14.10;99.90;;;;;;4992796;28;20119;-72
2023/05/12 07:40:50;;;;;;;41.90;17.97;;;14.20;99.90;;;;;;5001823;28;20418;-71
2023/05/12 07:43:16;;;;;;;40.53;18.38;;;14.20;99.90;;;;;;4984924;28;20025;-73
2023/05/12 07:45:42;;;;;;;35.13;17.73;;;14.30;99.90;;;;;;4993900;28;20113;-73
2023/05/12 07:48:10;;;;;;;36.80;18.13;;;14.30;99.90;;;;;;4988656;28;20316;-73
2023/05/12 07:50:36;;;;;;;40.40;18.20;;;14.40;99.90;;;;;;4991876;28;20105;-72
2023/05/12 07:53:03;;;;;;;38.70;18.25;;;14.40;99.90;;;;;;4985065;28;20034;-72
2023/05/12 07:55:28;;;;;;;36.63;17.73;;;14.60;99.90;;;;;;4995929;28;20022;-71
2023/05/12 07:57:54;;;;;;;43.67;19.03;;;14.60;99.90;;;;;;4990121;28;20030;-72
2023/05/12 08:00:20;;;;;;;34.07;17.57;;;14.60;99.90;;;;;;4984718;28;20326;-72
2023/05/12 08:02:46;;;;;;;39.53;18.13;;;14.50;99.90;;;;;;4995665;28;20491;-72
2023/05/12 08:05:12;;;;;;;31.93;17.77;;;14.60;99.90;;;;;;4996378;28;20492;-82
2023/05/12 08:07:38;;;;;;;37.17;18.77;;;14.70;99.90;;;;;;4987253;28;20025;-72
2023/05/12 08:10:05;;;;;;;36.50;19.20;;;14.80;99.90;;;;;;4991352;28;20070;-72
2023/05/12 08:12:31;;;;;;;35.67;18.40;;;14.80;99.90;;;;;;4985885;28;20029;-72
2023/05/12 08:14:57;;;;;;;34.80;17.10;;;14.90;99.90;;;;;;4984082;28;20121;-78
2023/05/12 08:17:23;;;;;;;35.30;17.93;;;14.90;99.90;;;;;;4990892;28;20054;-73
2023/05/12 08:19:49;;;;;;;37.30;19.63;;;15.00;99.90;;;;;;4986270;28;20035;-72
2023/05/12 08:22:15;;;;;;;38.20;18.30;;;15.10;99.90;;;;;;5007191;28;20023;-79
2023/05/12 08:24:40;;;;;;;30.87;16.90;;;15.10;99.90;;;;;;4993812;28;20476;-73
2023/05/12 08:27:06;;;;;;;37.03;17.43;;;15.20;99.90;;;;;;4987186;28;20147;-72
2023/05/12 08:29:32;;;;;;;30.50;16.03;;;15.30;99.90;;;;;;4993573;28;20076;-72
2023/05/12 08:31:57;;;;;;;39.00;18.17;;;15.30;99.90;;;;;;5011612;28;20451;-81
2023/05/12 08:34:24;;;;;;;37.17;17.13;;;15.40;99.90;;;;;;5013216;28;20133;-72
2023/05/12 08:36:53;;;;;;;36.28;17.75;;;15.40;99.90;;;;;;5014494;28;20030;-72
2023/05/12 08:39:19;;;;;;;35.88;16.77;;;15.40;99.90;;;;;;5003168;28;20034;-78
2023/05/12 08:41:55;;;;;;;32.92;16.52;;;15.40;99.90;;;;;;5008306;28;20052;-72
2023/05/12 08:44:23;;;;;;;34.78;17.80;;;15.50;99.90;;;;;;4989506;28;20023;-72
2023/05/12 08:46:51;;;;;;;33.30;15.82;;;15.70;99.90;;;;;;4991650;28;20031;-75
2023/05/12 08:49:20;;;;;;;33.95;16.83;;;15.80;99.90;;;;;;5005676;28;20061;-73
2023/05/12 08:51:47;;;;;;;32.58;15.55;;;15.90;99.90;;;;;;4996380;28;20028;-72
2023/05/12 08:54:13;;;;;;;;;;;16.00;99.90;;;;;;4984404;28;20377;-72
2023/05/12 08:56:43;;;;;;;31.33;14.52;;;16.00;99.90;;;;;;4994549;28;20008;-72
2023/05/12 08:59:09;;;;;;;34.25;16.65;;;16.10;99.90;;;;;;5003866;28;20069;-75
2023/05/12 09:02:18;;;;;;;29.13;15.00;;;16.20;99.90;;;;;;4988862;28;20022;-73
2023/05/12 09:04:44;;;;;;;31.08;15.50;;;16.20;99.90;;;;;;5007795;28;20032;-73
2023/05/12 09:07:10;;;;;;;30.47;16.40;;;16.30;99.90;;;;;;4990892;28;20494;-72
2023/05/12 09:09:39;;;;;;;30.53;15.73;;;16.30;99.90;;;;;;4995350;28;20085;-72
2023/05/12 09:12:10;;;;;;;26.52;13.25;;;16.40;99.90;;;;;;4993773;28;20167;-88
2023/05/12 09:14:39;;;;;;;27.27;15.40;;;16.50;99.90;;;;;;5002707;28;20042;-72
2023/05/12 09:17:05;;;;;;;29.20;15.52;;;16.60;99.90;;;;;;4984161;28;20027;-73
2023/05/12 09:19:33;;;;;;;26.20;15.18;;;16.60;99.90;;;;;;4989615;28;20026;-73
2023/05/12 09:21:59;;;;;;;29.48;15.50;;;16.60;99.90;;;;;;4994968;28;20033;-73
2023/05/12 09:24:39;;;;;;;29.67;15.25;;;16.60;99.90;;;;;;4995943;28;20030;-73
2023/05/12 09:27:05;;;;;;;26.52;14.38;;;16.70;99.90;;;;;;4998469;28;20444;-81
2023/05/12 09:29:32;;;;;;;27.67;14.60;;;16.60;99.90;;;;;;5002360;28;20034;-72
2023/05/12 09:32:00;;;;;;;26.08;14.43;;;16.60;99.90;;;;;;5000653;28;20515;-72
2023/05/12 09:34:37;;;;;;;27.98;13.52;;;16.70;99.90;;;;;;4990666;28;20547;-74
2023/05/12 09:37:05;;;;;;;23.15;12.45;;;16.70;99.90;;;;;;5001801;28;20092;-72
2023/05/12 09:39:31;;;;;;;27.00;14.70;;;16.70;99.90;;;;;;5002276;28;20129;-73
2023/05/12 09:41:57;;;;;;;30.63;15.70;;;16.70;99.90;;;;;;4998382;28;20021;-73
2023/05/12 09:44:23;;;;;;;29.37;15.97;;;16.70;99.90;;;;;;5002403;28;20100;-73
2023/05/12 09:46:50;;;;;;;24.98;15.38;;;16.70;99.90;;;;;;5003680;28;20085;-72
2023/05/12 09:49:25;;;;;;;25.42;13.35;;;16.80;99.90;;;;;;5010962;28;20034;-71
2023/05/12 09:51:52;;;;;;;28.95;15.32;;;16.80;99.90;;;;;;4995693;28;20350;-72
2023/05/12 09:54:28;;;;;;;24.05;14.38;;;16.90;99.90;;;;;;4989630;28;20480;-73
2023/05/12 09:56:59;;;;;;;24.08;13.88;;;17.10;99.90;;;;;;4994910;28;20422;-73
2023/05/12 09:59:31;;;;;;;30.58;15.00;;;17.20;99.90;;;;;;4997718;28;20089;-72
2023/05/12 10:01:59;;;;;;;23.23;15.15;;;17.30;99.90;;;;;;5000983;28;20031;-72
2023/05/12 10:04:28;;;;;;;26.90;14.73;;;17.50;99.90;;;;;;4992799;28;20022;-83
2023/05/12 10:06:56;;;;;;;25.33;14.88;;;17.70;99.90;;;;;;4988627;28;20038;-72
2023/05/12 10:09:32;;;;;;;25.25;13.95;;;17.70;99.90;;;;;;4984311;28;20333;-72
2023/05/12 10:12:01;;;;;;;24.35;14.98;;;17.60;99.90;;;;;;4996303;28;20030;-73
2023/05/12 10:14:28;;;;;;;28.60;14.00;;;17.50;99.90;;;;;;4990417;28;20121;-86
2023/05/12 10:16:54;;;;;;;24.00;13.90;;;17.60;99.90;;;;;;4988569;28;20303;-72
2023/05/12 10:19:21;;;;;;;21.15;12.27;;;17.60;99.90;;;;;;4995653;28;20044;-74
2023/05/12 10:21:47;;;;;;;24.52;14.45;;;17.80;99.90;;;;;;4998566;28;20367;-73
2023/05/12 10:24:15;;;;;;;25.80;14.13;;;17.80;99.90;;;;;;4994141;28;20037;-73
2023/05/12 10:26:44;;;;;;;31.95;16.88;;;17.80;99.90;;;;;;4996864;28;20027;-72
2023/05/12 10:29:11;;;;;;;36.00;18.13;;;17.90;99.90;;;;;;4985478;28;20027;-72
2023/05/12 10:31:37;;;;;;;33.85;17.92;;;17.60;99.90;;;;;;4989620;28;20031;-80
2023/05/12 10:34:04;;;;;;;28.40;16.33;;;17.60;99.90;;;;;;4994538;28;20026;-74
2023/05/12 10:36:29;;;;;;;32.15;17.33;;;17.70;99.90;;;;;;4995509;28;20093;-74
2023/05/12 10:39:04;;;;;;;19.93;12.60;;;17.80;99.90;;;;;;4998744;28;20843;-72
2023/05/12 10:41:32;;;;;;;22.10;12.70;;;17.90;99.90;;;;;;5002987;28;20486;-72
2023/05/12 10:43:58;;;;;;;20.30;11.00;;;18.10;99.90;;;;;;4999018;28;20377;-73
2023/05/12 10:46:25;;;;;;;19.30;12.03;;;18.20;99.90;;;;;;5010740;28;20014;-73
2023/05/12 10:49:03;;;;;;;19.90;12.73;;;18.30;99.90;;;;;;5008238;28;20251;-72
2023/05/12 10:51:49;;;;;;;25.05;14.65;;;18.60;99.90;;;;;;5010427;28;20030;-72
2023/05/12 10:54:23;;;;;;;28.50;14.63;;;18.80;99.90;;;;;;4991534;28;20022;-73
2023/05/12 10:56:49;;;;;;;29.08;16.38;;;18.80;99.90;;;;;;5000274;28;20461;-72
2023/05/12 10:59:17;;;;;;;32.40;16.93;;;18.50;99.90;;;;;;5005412;28;20034;-72
2023/05/12 11:02:13;;;;;;;37.20;18.70;;;18.40;99.90;;;;;;4995794;28;20362;-73
2023/05/12 11:04:40;;;;;;;;;;;18.40;99.90;;;;;;4998228;28;20022;-84
2023/05/12 11:07:08;;;;;;;27.10;13.85;;;18.40;99.90;;;;;;5003218;28;20546;-73
2023/05/12 11:09:36;;;;;;;32.63;18.20;;;18.30;99.90;;;;;;5007333;28;20484;-72
2023/05/12 11:12:02;;;;;;;32.75;17.42;;;18.30;99.90;;;;;;4999032;28;20026;-72
2023/05/12 11:14:27;;;;;;;36.92;19.85;;;18.50;99.90;;;;;;5002134;28;20049;-72
2023/05/12 11:16:53;;;;;;;30.43;16.37;;;18.50;99.90;;;;;;4995837;28;20039;-73
2023/05/12 11:19:19;;;;;;;33.00;17.77;;;18.30;99.90;;;;;;4996095;28;20031;-72
2023/05/12 11:21:44;;;;;;;30.00;15.43;;;18.20;99.90;;;;;;5005220;28;20014;-72
2023/05/12 11:24:10;;;;;;;31.13;17.33;;;18.30;99.90;;;;;;5004238;28;20090;-73
2023/05/12 11:26:38;;;;;;;32.03;17.13;;;18.40;99.90;;;;;;4983948;28;20114;-73
2023/05/12 11:29:04;;;;;;;32.47;16.70;;;18.40;99.90;;;;;;4984068;28;20322;-73
2023/05/12 11:31:30;;;;;;;25.77;15.30;;;18.50;99.90;;;;;;4987638;28;20015;-73
2023/05/12 11:34:06;;;;;;;34.43;16.53;;;18.40;99.90;;;;;;5003895;28;20059;-80
2023/05/12 11:36:42;;;;;;;32.45;17.65;;;18.50;99.90;;;;;;5004476;28;20030;-71
2023/05/12 11:39:27;;;;;;;28.85;16.48;;;18.50;99.90;;;;;;4998826;28;20369;-73
2023/05/12 11:41:53;;;;;;;32.83;16.77;;;18.60;99.90;;;;;;4985136;28;20027;-73
2023/05/12 11:44:23;;;;;;;33.08;18.13;;;18.50;99.90;;;;;;4998925;28;20096;-72
2023/05/12 11:47:10;;;;;;;30.17;18.10;;;18.50;99.90;;;;;;4995575;28;20038;-72
2023/05/12 11:49:46;;;;;;;32.30;17.05;;;18.30;99.90;;;;;;5002171;28;20105;-83
2023/05/12 11:52:12;;;;;;;;;;;18.30;99.90;;;;;;5001582;28;20022;-72
2023/05/12 11:54:38;;;;;;;35.03;19.10;;;18.30;99.90;;;;;;4999657;28;19912;-78
2023/05/12 11:57:04;;;;;;;37.17;19.00;;;18.20;99.90;;;;;;4997504;28;20438;-81
2023/05/12 11:59:32;;;;;;;34.50;18.95;;;18.30;99.90;;;;;;4999346;28;20045;-71
2023/05/12 12:02:02;;;;;;;32.83;18.13;;;18.40;99.90;;;;;;4998402;28;20031;-72
2023/05/12 12:04:35;;;;;;;39.58;18.40;;;18.50;99.90;;;;;;4997162;28;20034;-81
2023/05/12 12:07:01;;;;;;;33.67;17.30;;;18.60;99.90;;;;;;4998717;28;20022;-73
2023/05/12 12:09:37;;;;;;;32.90;18.20;;;18.50;99.90;;;;;;4997696;28;20056;-72
2023/05/12 12:12:04;;;;;;;32.97;18.47;;;18.50;99.90;;;;;;4998167;28;20113;-71
2023/05/12 12:14:31;;;;;;;33.13;18.33;;;18.60;99.90;;;;;;4996311;28;20085;-72
2023/05/12 12:16:58;;;;;;;41.20;20.80;;;18.90;99.90;;;;;;4999292;28;20030;-71
2023/05/12 12:19:24;;;;;;;29.55;16.73;;;19.00;99.90;;;;;;4998777;28;20022;-71
2023/05/12 12:21:50;;;;;;;33.28;17.75;;;18.90;99.90;;;;;;5000795;28;20030;-78
2023/05/12 12:24:16;;;;;;;36.47;18.70;;;18.70;99.90;;;;;;4997436;28;20033;-71
2023/05/12 12:26:42;;;;;;;30.50;16.10;;;18.60;99.90;;;;;;4998835;28;20112;-71
2023/05/12 12:29:08;;;;;;;35.33;17.37;;;18.70;99.90;;;;;;4997528;28;20033;-73
2023/05/12 12:31:35;;;;;;;31.67;17.00;;;18.70;99.90;;;;;;5000264;28;20018;-81
2023/05/12 12:34:01;;;;;;;35.78;17.67;;;18.80;99.90;;;;;;4998099;28;20049;-72